createdAt,value
2023-02-24T00:02:05.566Z,101494.88
2023-02-24T00:04:39.618Z,101487.91
2023-02-24T00:07:08.968Z,101487.00
2023-02-24T00:09:37.189Z,101489.53
2023-02-24T00:12:10.234Z,101496.47
2023-02-24T00:14:40.057Z,101490.34
2023-02-24T00:17:08.392Z,101486.03
2023-02-24T00:19:37.940Z,101486.06
2023-02-24T00:22:07.786Z,101493.88
2023-02-24T00:24:36.107Z,101494.81
2023-02-24T00:27:12.210Z,101478.41
2023-02-24T00:29:41.885Z,101480.22
2023-02-24T00:32:13.878Z,101476.78
2023-02-24T00:34:43.121Z,101466.41
2023-02-24T00:37:10.465Z,101462.09
2023-02-24T00:39:41.279Z,101458.72
2023-02-24T00:42:11.641Z,101462.25
2023-02-24T00:44:44.792Z,101465.81
2023-02-24T00:47:14.231Z,101467.56
2023-02-24T00:49:43.344Z,101470.28
2023-02-24T00:52:18.818Z,101473.00
2023-02-24T00:54:48.887Z,101466.97
2023-02-24T00:57:18.486Z,101465.28
2023-02-24T00:59:48.494Z,101461.88
2023-02-24T01:02:16.016Z,101462.81
2023-02-24T01:04:45.028Z,101465.50
2023-02-24T01:07:14.404Z,101456.88
2023-02-24T01:09:43.900Z,101445.59
2023-02-24T01:12:32.237Z,101441.25
2023-02-24T01:14:59.901Z,101439.53
2023-02-24T01:17:26.986Z,101433.47
2023-02-24T01:19:55.110Z,101430.00
2023-02-24T01:22:23.720Z,101422.19
2023-02-24T01:24:50.948Z,101410.97
2023-02-24T01:27:19.639Z,101419.69
2023-02-24T01:29:49.956Z,101422.31
2023-02-24T01:32:21.436Z,101416.22
2023-02-24T01:34:52.746Z,101420.59
2023-02-24T01:37:21.161Z,101415.38
2023-02-24T01:39:50.410Z,101403.22
2023-02-24T01:42:21.919Z,101405.00
2023-02-24T01:44:48.984Z,101398.06
2023-02-24T01:47:22.363Z,101392.00
2023-02-24T01:49:54.728Z,101391.19
2023-02-24T01:52:36.367Z,101385.16
2023-02-24T01:55:23.192Z,101379.97
2023-02-24T01:57:53.902Z,101368.69
2023-02-24T02:00:36.985Z,101360.91
2023-02-24T02:03:13.450Z,101368.69
2023-02-24T02:05:42.647Z,101365.22
2023-02-24T02:08:11.078Z,101362.63
2023-02-24T02:10:41.522Z,101349.59
2023-02-24T02:13:08.591Z,101340.94
2023-02-24T02:16:13.855Z,101340.09
2023-02-24T02:19:16.223Z,101338.34
2023-02-24T02:22:06.027Z,101328.84
2023-02-24T02:25:02.681Z,101321.94
2023-02-24T02:27:59.437Z,101315.03
2023-02-24T02:31:09.315Z,101307.19
2023-02-24T02:34:07.276Z,101302.00
2023-02-24T02:37:24.609Z,101292.44
2023-02-24T02:40:21.127Z,101299.34
2023-02-24T02:42:58.950Z,101293.25
2023-02-24T02:45:51.843Z,101287.97
2023-02-24T02:48:36.213Z,101280.09
2023-02-24T02:51:33.261Z,101275.66
2023-02-24T02:54:16.777Z,101277.28
2023-02-24T02:57:11.081Z,101273.66
2023-02-24T02:59:49.308Z,101271.81
2023-02-24T03:02:27.971Z,101269.13
2023-02-24T03:05:02.228Z,101270.78
2023-02-24T03:07:37.602Z,101269.84
2023-02-24T03:10:17.635Z,101261.09
2023-02-24T03:12:51.995Z,101269.69
2023-02-24T03:15:22.477Z,101258.31
2023-02-24T03:18:01.904Z,101253.88
2023-02-24T03:20:42.898Z,101249.50
2023-02-24T03:23:18.443Z,101255.50
2023-02-24T03:26:25.360Z,101254.56
2023-02-24T03:29:12.615Z,101252.78
2023-02-24T03:31:55.422Z,101250.09
2023-02-24T03:34:31.029Z,101246.53
2023-02-24T03:36:58.291Z,101246.47
2023-02-24T03:39:25.963Z,101242.97
2023-02-24T03:42:21.843Z,101233.34
2023-02-24T03:44:49.772Z,101238.47
2023-02-24T03:47:20.388Z,101233.22
2023-02-24T03:49:48.399Z,101226.22
2023-02-24T03:52:34.812Z,101216.59
2023-02-24T03:55:37.886Z,101221.72
2023-02-24T03:58:38.635Z,101219.94
2023-02-24T04:01:31.025Z,101229.34
2023-02-24T04:04:07.451Z,101222.44
2023-02-24T04:06:55.788Z,101224.16
2023-02-24T04:09:29.635Z,101218.94
2023-02-24T04:12:42.765Z,101217.19
2023-02-24T04:15:19.742Z,101210.19
2023-02-24T04:17:59.396Z,101208.44
2023-02-24T04:20:34.963Z,101208.44
2023-02-24T04:23:16.787Z,101208.38
2023-02-24T04:25:50.996Z,101210.06
2023-02-24T04:28:22.299Z,101209.16
2023-02-24T04:30:55.513Z,101205.69
2023-02-24T04:33:23.749Z,101205.69
2023-02-24T04:35:53.441Z,101194.41
2023-02-24T04:38:21.782Z,101207.41
2023-02-24T04:40:50.319Z,101193.56
2023-02-24T04:43:18.038Z,101198.75
2023-02-24T04:45:45.260Z,101190.97
2023-02-24T04:48:13.048Z,101190.13
2023-02-24T04:50:43.811Z,101180.56
2023-02-24T04:53:15.225Z,101174.53
2023-02-24T04:55:48.901Z,101178.84
2023-02-24T04:58:23.007Z,101170.22
2023-02-24T05:00:52.830Z,101170.25
2023-02-24T05:03:22.880Z,101170.28
2023-02-24T05:05:58.137Z,101166.84
2023-02-24T05:08:27.913Z,101159.09
2023-02-24T05:11:06.638Z,101154.00
2023-02-24T05:13:34.082Z,101149.75
2023-02-24T05:16:08.766Z,101148.13
2023-02-24T05:18:37.287Z,101150.00
2023-02-24T05:21:35.334Z,101142.31
2023-02-24T05:24:11.541Z,101133.72
2023-02-24T05:26:41.830Z,101134.69
2023-02-24T05:29:11.002Z,101130.44
2023-02-24T05:31:38.633Z,101122.66
2023-02-24T05:34:08.243Z,101115.72
2023-02-24T05:36:40.448Z,101112.28
2023-02-24T05:39:12.705Z,101110.59
2023-02-24T05:41:43.362Z,101100.22
2023-02-24T05:44:17.614Z,101099.38
2023-02-24T05:46:46.825Z,101098.53
2023-02-24T05:49:24.136Z,101099.44
2023-02-24T05:51:56.176Z,101092.50
2023-02-24T05:54:35.677Z,101084.75
2023-02-24T05:57:08.614Z,101077.88
2023-02-24T05:59:36.053Z,101073.56
2023-02-24T06:02:09.283Z,101070.97
2023-02-24T06:04:39.673Z,101071.00
2023-02-24T06:07:19.095Z,101070.16
2023-02-24T06:09:56.580Z,101070.19
2023-02-24T06:12:33.888Z,101063.28
2023-02-24T06:15:07.386Z,101061.56
2023-02-24T06:17:34.976Z,101059.88
2023-02-24T06:20:02.874Z,101064.22
2023-02-24T06:22:29.910Z,101070.31
2023-02-24T06:24:57.035Z,101061.66
2023-02-24T06:27:24.842Z,101046.03
2023-02-24T06:29:54.894Z,101038.25
2023-02-24T06:32:26.131Z,101029.56
2023-02-24T06:34:54.416Z,101027.84
2023-02-24T06:37:23.040Z,101021.78
2023-02-24T06:39:50.490Z,101023.47
2023-02-24T06:42:17.530Z,101017.44
2023-02-24T06:44:45.317Z,101013.13
2023-02-24T06:47:16.293Z,101014.81
2023-02-24T06:49:43.681Z,101017.47
2023-02-24T06:52:11.826Z,101014.84
2023-02-24T06:54:39.037Z,101011.41
2023-02-24T06:57:09.736Z,101005.38
2023-02-24T06:59:37.153Z,101008.84
2023-02-24T07:02:04.179Z,100996.75
2023-02-24T07:04:36.186Z,100996.75
2023-02-24T07:07:03.667Z,100981.16
2023-02-24T07:09:32.120Z,100992.44
2023-02-24T07:12:04.483Z,100986.41
2023-02-24T07:14:31.640Z,100983.81
2023-02-24T07:17:00.209Z,100978.63
2023-02-24T07:19:32.413Z,100979.50
2023-02-24T07:22:03.494Z,100979.53
2023-02-24T07:24:40.632Z,100983.00
2023-02-24T07:27:27.597Z,100980.47
2023-02-24T07:29:54.568Z,100980.44
2023-02-24T07:32:25.287Z,100969.19
2023-02-24T07:34:53.141Z,100968.34
2023-02-24T07:37:21.099Z,100966.63
2023-02-24T07:39:48.102Z,100957.13
2023-02-24T07:42:15.485Z,100958.88
2023-02-24T07:44:46.816Z,100955.47
2023-02-24T07:47:15.915Z,100951.16
2023-02-24T07:49:45.511Z,100943.31
2023-02-24T07:52:12.697Z,100945.06
2023-02-24T07:54:39.753Z,100938.09
2023-02-24T07:57:13.500Z,100932.88
2023-02-24T07:59:46.801Z,100931.97
2023-02-24T08:02:14.459Z,100933.72
2023-02-24T08:04:50.130Z,100931.97
2023-02-24T08:07:24.972Z,100928.44
2023-02-24T08:10:14.272Z,100928.41
2023-02-24T08:12:45.705Z,100915.34
2023-02-24T08:15:23.704Z,100910.94
2023-02-24T08:18:00.691Z,100915.28
2023-02-24T08:20:36.176Z,100910.03
2023-02-24T08:23:06.307Z,100902.13
2023-02-24T08:25:36.539Z,100895.13
2023-02-24T08:28:11.442Z,100899.41
2023-02-24T08:30:45.608Z,100896.72
2023-02-24T08:33:23.005Z,100894.00
2023-02-24T08:36:02.212Z,100892.19
2023-02-24T08:38:42.054Z,100896.47
2023-02-24T08:41:17.842Z,100893.75
2023-02-24T08:43:47.472Z,100886.69
2023-02-24T08:46:18.721Z,100874.44
2023-02-24T08:48:55.632Z,100876.97
2023-02-24T08:51:35.705Z,100868.22
2023-02-24T08:54:19.698Z,100864.78
2023-02-24T08:56:49.258Z,100863.97
2023-02-24T08:59:37.064Z,100865.72
2023-02-24T09:02:18.722Z,100863.97
2023-02-24T09:04:52.471Z,100860.50
2023-02-24T09:07:40.782Z,100850.03
2023-02-24T09:10:17.801Z,100839.66
2023-02-24T09:12:45.409Z,100836.25
2023-02-24T09:15:15.416Z,100831.09
2023-02-24T09:17:45.223Z,100832.00
2023-02-24T09:20:35.882Z,100838.19
2023-02-24T09:23:04.134Z,100822.53
2023-02-24T09:25:41.562Z,100823.47
2023-02-24T09:28:20.471Z,100815.66
2023-02-24T09:30:53.844Z,100812.19
2023-02-24T09:33:38.722Z,100811.31
2023-02-24T09:36:13.203Z,100804.38
2023-02-24T09:39:11.003Z,100801.78
2023-02-24T09:42:02.504Z,100800.06
2023-02-24T09:44:39.074Z,100793.16
2023-02-24T09:47:31.020Z,100801.88
2023-02-24T09:50:14.096Z,100794.06
2023-02-24T09:53:19.643Z,100793.19
2023-02-24T09:56:23.853Z,100783.66
2023-02-24T10:00:24.066Z,100782.75
2023-02-24T10:03:42.307Z,100768.88
2023-02-24T10:06:48.510Z,100761.06
2023-02-24T10:09:41.267Z,100759.31
2023-02-24T10:12:40.108Z,100761.94
2023-02-24T10:15:58.944Z,100755.00
2023-02-24T10:19:11.735Z,100749.81
2023-02-24T10:22:39.790Z,100743.66
2023-02-24T10:25:54.153Z,100739.31
2023-02-24T10:29:29.520Z,100734.94
2023-02-24T10:32:41.251Z,100732.25
2023-02-24T10:35:25.949Z,100731.38
2023-02-24T10:38:05.405Z,100721.75
2023-02-24T10:40:59.698Z,100722.59
2023-02-24T10:43:57.042Z,100716.47
2023-02-24T10:46:44.518Z,100718.16
2023-02-24T10:49:33.733Z,100720.72
2023-02-24T10:52:57.193Z,100707.66
2023-02-24T10:55:47.967Z,100705.91
2023-02-24T10:58:44.949Z,100698.94
2023-02-24T11:02:02.743Z,100697.19
2023-02-24T11:05:04.326Z,100696.28
2023-02-24T11:07:54.020Z,100691.06
2023-02-24T11:10:58.571Z,100683.16
2023-02-24T11:14:09.229Z,100677.03
2023-02-24T11:17:12.256Z,100671.78
2023-02-24T11:20:15.155Z,100669.16
2023-02-24T11:22:47.788Z,100664.75
2023-02-24T11:25:41.206Z,100673.44
2023-02-24T11:28:29.546Z,100664.72
2023-02-24T11:31:10.513Z,100655.97
2023-02-24T11:33:55.483Z,100644.69
2023-02-24T11:36:48.131Z,100642.06
2023-02-24T11:39:55.258Z,100637.72
2023-02-24T11:42:29.798Z,100634.28
2023-02-24T11:45:12.707Z,100628.19
2023-02-24T11:47:50.149Z,100632.59
2023-02-24T11:50:30.060Z,100625.63
2023-02-24T11:53:03.497Z,100621.25
2023-02-24T11:55:38.861Z,100611.69
2023-02-24T11:58:27.381Z,100612.56
2023-02-24T12:01:09.392Z,100609.91
2023-02-24T12:03:53.705Z,100605.56
2023-02-24T12:06:44.056Z,100596.78
2023-02-24T12:09:20.952Z,100595.03
2023-02-24T12:12:39.586Z,100589.78
2023-02-24T12:15:30.960Z,100584.50
2023-02-24T12:18:15.680Z,100582.81
2023-02-24T12:20:53.902Z,100577.56
2023-02-24T12:23:34.470Z,100561.84
2023-02-24T12:26:27.381Z,100561.78
2023-02-24T12:29:50.450Z,100560.81
2023-02-24T12:32:22.668Z,100553.84
2023-02-24T12:35:32.023Z,100552.09
2023-02-24T12:38:43.483Z,100543.41
2023-02-24T12:41:43.389Z,100538.19
2023-02-24T12:44:36.908Z,100544.34
2023-02-24T12:47:16.073Z,100539.16
2023-02-24T12:50:16.675Z,100529.59
2023-02-24T12:53:02.074Z,100527.91
2023-02-24T12:55:35.024Z,100526.25
2023-02-24T12:58:13.658Z,100525.44
2023-02-24T13:01:00.399Z,100518.41
2023-02-24T13:03:53.693Z,100512.28
2023-02-24T13:07:14.849Z,100516.72
2023-02-24T13:10:32.602Z,100512.44
2023-02-24T13:13:19.194Z,100504.53
2023-02-24T13:15:56.384Z,100497.44
2023-02-24T13:18:36.001Z,100509.63
2023-02-24T13:21:22.678Z,100512.28
2023-02-24T13:24:02.971Z,100502.75
2023-02-24T13:26:32.787Z,100474.88
2023-02-24T13:29:15.400Z,100480.06
2023-02-24T13:31:53.180Z,100466.03
2023-02-24T13:34:29.513Z,100466.75
2023-02-24T13:36:57.353Z,100458.78
2023-02-24T13:39:32.222Z,100450.75
2023-02-24T13:42:27.931Z,100447.91
2023-02-24T13:45:10.107Z,100446.84
2023-02-24T13:48:01.788Z,100441.31
2023-02-24T13:51:05.876Z,100428.53
2023-02-24T13:54:02.715Z,100426.44
2023-02-24T13:56:38.930Z,100429.00
2023-02-24T13:59:11.658Z,100415.78
2023-02-24T14:02:14.399Z,100407.75
2023-02-24T14:04:53.200Z,100411.09
2023-02-24T14:07:29.193Z,100414.50
2023-02-24T14:10:05.257Z,100401.34
2023-02-24T14:12:36.189Z,100389.03
2023-02-24T14:15:04.707Z,100385.47
2023-02-24T14:17:37.253Z,100389.59
2023-02-24T14:20:09.067Z,100382.69
2023-02-24T14:22:54.969Z,100387.31
2023-02-24T14:25:24.378Z,100375.31
2023-02-24T14:27:55.626Z,100382.38
2023-02-24T14:30:35.550Z,100373.72
2023-02-24T14:33:05.867Z,100381.63
2023-02-24T14:35:42.022Z,100387.50
2023-02-24T14:38:35.093Z,100385.94
2023-02-24T14:41:07.972Z,100380.13
2023-02-24T14:43:41.915Z,100379.72
2023-02-24T14:46:09.609Z,100362.97
2023-02-24T14:48:37.479Z,100363.03
2023-02-24T14:51:31.110Z,100358.56
2023-02-24T14:54:06.162Z,100375.13
2023-02-24T14:56:36.785Z,100383.16
2023-02-24T14:59:41.427Z,100369.34
2023-02-24T15:02:20.970Z,100354.72
2023-02-24T15:04:48.873Z,100360.22
2023-02-24T15:07:36.265Z,100386.56
2023-02-24T15:10:17.396Z,100390.13
2023-02-24T15:12:50.755Z,100391.13
2023-02-24T15:15:26.387Z,100379.16
2023-02-24T15:18:04.222Z,100382.09
2023-02-24T15:20:36.898Z,100384.84
2023-02-24T15:23:05.447Z,100388.50
2023-02-24T15:25:52.868Z,100420.94
2023-02-24T15:28:32.997Z,100386.28
2023-02-24T15:31:18.406Z,100376.84
2023-02-24T15:33:58.002Z,100371.66
2023-02-24T15:36:33.499Z,100352.34
2023-02-24T15:39:10.319Z,100367.13
2023-02-24T15:41:43.749Z,100366.97
2023-02-24T15:44:34.289Z,100367.59
2023-02-24T15:47:24.405Z,100366.41
2023-02-24T15:49:51.993Z,100364.34
2023-02-24T15:52:28.181Z,100367.59
2023-02-24T15:54:57.922Z,100376.34
2023-02-24T15:57:25.938Z,100373.81
2023-02-24T15:59:52.859Z,100376.59
2023-02-24T16:02:23.495Z,100368.81
2023-02-24T16:04:52.561Z,100374.06
2023-02-24T16:07:29.993Z,100365.34
2023-02-24T16:09:59.803Z,100361.00
2023-02-24T16:12:34.035Z,100362.81
2023-02-24T16:15:05.903Z,100362.03
2023-02-24T16:17:40.854Z,100356.75
2023-02-24T16:20:34.065Z,100379.50
2023-02-24T16:23:05.333Z,100367.44
2023-02-24T16:25:40.993Z,100390.34
2023-02-24T16:28:20.799Z,100374.78
2023-02-24T16:30:50.343Z,100374.81
2023-02-24T16:33:21.090Z,100377.56
2023-02-24T16:35:49.749Z,100382.06
2023-02-24T16:38:18.620Z,100374.28
2023-02-24T16:40:48.880Z,100380.47
2023-02-24T16:43:16.438Z,100393.66
2023-02-24T16:45:45.997Z,100391.97
2023-02-24T16:48:26.181Z,100387.66
2023-02-24T16:50:53.675Z,100386.81
2023-02-24T16:53:23.989Z,100398.22
2023-02-24T16:55:51.433Z,100394.78
2023-02-24T16:58:19.477Z,100394.78
2023-02-24T17:00:50.951Z,100388.72
2023-02-24T17:03:21.275Z,100390.47
2023-02-24T17:05:48.806Z,100375.75
2023-02-24T17:08:16.523Z,100390.75
2023-02-24T17:10:45.862Z,100397.00
2023-02-24T17:13:16.247Z,100400.59
2023-02-24T17:15:43.292Z,100407.69
2023-02-24T17:18:10.928Z,100406.03
2023-02-24T17:20:42.506Z,100394.09
2023-02-24T17:23:11.616Z,100394.38
2023-02-24T17:25:38.804Z,100407.59
2023-02-24T17:28:06.902Z,100398.09
2023-02-24T17:30:36.076Z,100424.31
2023-02-24T17:33:03.785Z,100448.69
2023-02-24T17:35:31.320Z,100444.41
2023-02-24T17:37:58.275Z,100452.53
2023-02-24T17:40:25.495Z,100446.69
2023-02-24T17:42:52.527Z,100452.16
2023-02-24T17:45:19.787Z,100459.25
2023-02-24T17:47:46.852Z,100461.13
2023-02-24T17:50:14.069Z,100456.00
2023-02-24T17:52:41.128Z,100456.94
2023-02-24T17:55:09.312Z,100454.41
2023-02-24T17:57:37.249Z,100457.91
2023-02-24T18:00:06.220Z,100444.88
2023-02-24T18:02:40.682Z,100464.88
2023-02-24T18:05:08.868Z,100462.28
2023-02-24T18:07:36.829Z,100466.63
2023-02-24T18:10:05.414Z,100461.41
2023-02-24T18:12:32.435Z,100474.41
2023-02-24T18:15:08.211Z,100484.88
2023-02-24T18:17:37.629Z,100483.97
2023-02-24T18:20:09.331Z,100484.00
2023-02-24T18:22:36.402Z,100475.28
2023-02-24T18:25:03.969Z,100478.78
2023-02-24T18:27:31.244Z,100493.47
2023-02-24T18:29:58.228Z,100490.88
2023-02-24T18:32:25.415Z,100500.44
2023-02-24T18:34:52.470Z,100506.53
2023-02-24T18:37:20.134Z,100487.44
2023-02-24T18:39:47.145Z,100483.97
2023-02-24T18:42:14.157Z,100493.59
2023-02-24T18:44:41.067Z,100484.94
2023-02-24T18:47:09.725Z,100493.69
2023-02-24T18:49:37.564Z,100492.84
2023-02-24T18:52:05.532Z,100496.34
2023-02-24T18:54:34.520Z,100492.03
2023-02-24T18:57:02.138Z,100497.22
2023-02-24T18:59:29.560Z,100504.22
2023-02-24T19:01:56.931Z,100499.88
2023-02-24T19:04:25.319Z,100508.56
2023-02-24T19:06:52.570Z,100504.22
2023-02-24T19:09:27.390Z,100510.25
2023-02-24T19:11:56.764Z,100498.94
2023-02-24T19:14:23.764Z,100508.47
2023-02-24T19:16:50.917Z,100499.78
2023-02-24T19:19:17.944Z,100507.59
2023-02-24T19:21:45.738Z,100490.19
2023-02-24T19:24:13.891Z,100495.41
2023-02-24T19:26:53.564Z,100496.28
2023-02-24T19:29:22.089Z,100510.13
2023-02-24T19:31:54.133Z,100524.09
2023-02-24T19:34:21.510Z,100518.88
2023-02-24T19:36:59.888Z,100518.91
2023-02-24T19:39:38.530Z,100509.38
2023-02-24T19:42:06.848Z,100505.94
2023-02-24T19:44:34.484Z,100513.00
2023-02-24T19:47:01.466Z,100512.16
2023-02-24T19:49:28.581Z,100514.78
2023-02-24T19:51:57.203Z,100521.78
2023-02-24T19:54:24.204Z,100511.34
2023-02-24T19:56:52.396Z,100520.06
2023-02-24T19:59:19.341Z,100511.38
2023-02-24T20:01:46.566Z,100521.00
2023-02-24T20:04:13.556Z,100524.50
2023-02-24T20:06:45.986Z,100512.34
2023-02-24T20:09:21.192Z,100508.88
2023-02-24T20:11:51.179Z,100511.53
2023-02-24T20:14:20.148Z,100518.50
2023-02-24T20:16:47.533Z,100528.94
2023-02-24T20:19:15.497Z,100534.16
2023-02-24T20:21:43.015Z,100535.03
2023-02-24T20:24:15.557Z,100537.69
2023-02-24T20:26:47.113Z,100542.00
2023-02-24T20:29:17.178Z,100543.75
2023-02-24T20:31:44.470Z,100550.69
2023-02-24T20:34:11.780Z,100549.81
2023-02-24T20:36:38.878Z,100559.34
2023-02-24T20:39:14.055Z,100556.72
2023-02-24T20:41:41.385Z,100551.53
2023-02-24T20:44:08.850Z,100558.47
2023-02-24T20:46:36.533Z,100556.78
2023-02-24T20:49:10.586Z,100559.41
2023-02-24T20:51:38.624Z,100560.34
2023-02-24T20:54:06.692Z,100556.88
2023-02-24T20:56:37.012Z,100562.13
2023-02-24T20:59:18.913Z,100584.69
2023-02-24T21:01:48.374Z,100575.19
2023-02-24T21:04:19.393Z,100580.41
2023-02-24T21:06:48.073Z,100569.09
2023-02-24T21:09:16.029Z,100568.25
2023-02-24T21:11:43.037Z,100578.63
2023-02-24T21:14:15.904Z,100572.56
2023-02-24T21:16:43.169Z,100570.84
2023-02-24T21:19:10.116Z,100568.25
2023-02-24T21:21:37.015Z,100571.72
2023-02-24T21:24:05.216Z,100583.84
2023-02-24T21:26:32.168Z,100571.72
2023-02-24T21:28:59.388Z,100560.44
2023-02-24T21:31:27.685Z,100565.63
2023-02-24T21:33:55.817Z,100576.06
2023-02-24T21:36:25.751Z,100577.78
2023-02-24T21:38:54.556Z,100590.78
2023-02-24T21:41:23.618Z,100591.63
2023-02-24T21:43:55.709Z,100585.53
2023-02-24T21:46:27.940Z,100596.75
2023-02-24T21:48:57.664Z,100581.94
2023-02-24T21:51:26.664Z,100581.94
2023-02-24T21:53:56.845Z,100602.84
2023-02-24T21:56:29.844Z,100583.75
2023-02-24T21:59:04.252Z,100592.44
2023-02-24T22:01:42.174Z,100583.78
2023-02-24T22:04:18.805Z,100579.47
2023-02-24T22:06:46.087Z,100583.84
2023-02-24T22:09:20.872Z,100590.78
2023-02-24T22:11:49.561Z,100590.81
2023-02-24T22:14:17.657Z,100593.44
2023-02-24T22:16:45.297Z,100593.44
2023-02-24T22:19:13.003Z,100585.63
2023-02-24T22:21:42.369Z,100586.47
2023-02-24T22:24:14.577Z,100576.06
2023-02-24T22:26:42.862Z,100586.47
2023-02-24T22:29:11.270Z,100587.31
2023-02-24T22:31:39.484Z,100588.16
2023-02-24T22:34:08.640Z,100586.44
2023-02-24T22:36:43.762Z,100581.22
2023-02-24T22:39:11.050Z,100582.09
2023-02-24T22:41:38.301Z,100585.56
2023-02-24T22:44:05.779Z,100598.59
2023-02-24T22:46:37.145Z,100596.81
2023-02-24T22:49:05.704Z,100601.19
2023-02-24T22:51:32.745Z,100595.09
2023-02-24T22:53:59.771Z,100582.97
2023-02-24T22:56:29.108Z,100591.66
2023-02-24T22:58:58.025Z,100596.84
2023-02-24T23:01:32.067Z,100602.91
2023-02-24T23:04:01.650Z,100605.53
2023-02-24T23:06:30.345Z,100609.00
2023-02-24T23:08:59.633Z,100621.19
2023-02-24T23:11:38.472Z,100623.81
2023-02-24T23:14:10.012Z,100629.00
2023-02-24T23:16:38.753Z,100633.34
2023-02-24T23:19:13.075Z,100624.69
2023-02-24T23:21:43.594Z,100621.22
2023-02-24T23:24:13.883Z,100617.78
2023-02-24T23:26:44.980Z,100619.47
2023-02-24T23:29:15.540Z,100632.50
2023-02-24T23:31:43.054Z,100637.69
2023-02-24T23:34:11.810Z,100636.00
2023-02-24T23:36:43.511Z,100640.31
2023-02-24T23:39:13.492Z,100640.31
2023-02-24T23:41:44.336Z,100647.25
2023-02-24T23:44:12.424Z,100642.03
2023-02-24T23:46:39.509Z,100651.59
2023-02-24T23:49:06.497Z,100655.06
2023-02-24T23:51:50.134Z,100662.00
2023-02-24T23:54:18.595Z,100662.00
2023-02-24T23:56:46.442Z,100663.72
2023-02-24T23:59:14.346Z,100661.97
